Time;durP1;ratioP1;P1;durP2;ratioP2;P2;SDS_P1;SDS_P2;PMS_P1;PMS_P2;Temp;Humidity;BMP_temperature;BMP_pressure;BME280_temperature;BME280_humidity;BME280_pressure;Samples;Min_cycle;Max_cycle;Signal;HPM_P1;HPM_P2
2021/01/28 04:07:41;;;;;;;17.65;15.95;;;3.30;99.90;;;;;;5844340;23;20242;-70
2021/01/28 04:10:10;;;;;;;16.52;14.82;;;3.30;99.90;;;;;;4982668;28;20519;-71
2021/01/28 04:12:35;;;;;;;16.83;15.23;;;3.30;99.90;;;;;;4993601;28;20280;-73
2021/01/28 04:15:02;;;;;;;17.65;15.95;;;3.30;99.90;;;;;;4994143;28;20213;-71
2021/01/28 04:17:28;;;;;;;16.92;15.32;;;3.30;99.90;;;;;;4991749;28;20592;-70
2021/01/28 04:19:53;;;;;;;15.80;14.23;;;3.30;99.90;;;;;;4993866;28;20297;-77
2021/01/28 04:22:19;;;;;;;16.50;14.85;;;3.40;99.90;;;;;;4992886;28;20224;-76
2021/01/28 04:24:45;;;;;;;16.40;14.93;;;3.40;99.90;;;;;;4991975;28;20181;-75
2021/01/28 04:27:10;;;;;;;15.82;14.27;;;3.30;99.90;;;;;;4993387;28;20174;-77
2021/01/28 04:29:36;;;;;;;17.92;16.13;;;3.40;99.90;;;;;;4993391;28;20196;-77
2021/01/28 04:32:02;;;;;;;17.45;15.75;;;3.40;99.90;;;;;;4993503;28;20180;-77
2021/01/28 04:34:28;;;;;;;17.52;15.77;;;3.40;99.90;;;;;;4993421;28;20193;-71
2021/01/28 04:36:53;;;;;;;16.05;14.55;;;3.40;99.90;;;;;;4991901;28;20241;-71
2021/01/28 04:39:19;;;;;;;17.60;15.85;;;3.40;99.90;;;;;;4992278;28;20194;-71
2021/01/28 04:41:45;;;;;;;16.00;14.45;;;3.40;99.90;;;;;;4993189;28;20174;-72
2021/01/28 04:44:12;;;;;;;17.05;15.48;;;3.40;99.90;;;;;;4993200;28;20247;-70
2021/01/28 04:46:42;;;;;;;16.00;14.50;;;3.50;99.90;;;;;;4992095;28;20213;-73
2021/01/28 04:49:13;;;;;;;15.18;13.77;;;3.50;99.90;;;;;;4993145;28;20196;-73
2021/01/28 04:51:42;;;;;;;15.68;14.18;;;3.50;99.90;;;;;;4993192;28;20166;-73
2021/01/28 04:54:22;;;;;;;16.30;14.55;;;3.50;99.90;;;;;;4990176;28;20194;-71
2021/01/28 04:56:50;;;;;;;16.63;15.13;;;3.50;99.90;;;;;;4993065;28;20205;-72
2021/01/28 04:59:32;;;;;;;16.88;15.27;;;3.50;99.90;;;;;;4991938;28;20582;-71
2021/01/28 05:01:59;;;;;;;17.92;16.23;;;3.50;99.90;;;;;;4992993;28;20162;-71
2021/01/28 05:04:31;;;;;;;17.05;15.43;;;3.50;99.90;;;;;;4992692;28;20194;-72
2021/01/28 05:06:57;;;;;;;17.55;15.95;;;3.60;99.90;;;;;;4992663;28;20174;-72
2021/01/28 05:09:23;;;;;;;17.75;16.05;;;3.50;99.90;;;;;;4992434;28;20241;-71
2021/01/28 05:11:55;;;;;;;18.05;16.35;;;3.50;99.90;;;;;;4992740;28;20695;-71
2021/01/28 05:14:25;;;;;;;18.80;17.00;;;3.50;99.90;;;;;;4991413;28;20205;-71
2021/01/28 05:16:53;;;;;;;17.30;15.60;;;3.50;99.90;;;;;;4992804;28;20232;-72
2021/01/28 05:19:50;;;;;;;17.67;15.95;;;3.50;99.90;;;;;;4992597;28;20268;-71
2021/01/28 05:22:32;;;;;;;17.58;15.88;;;3.50;99.90;;;;;;4992620;28;20170;-76
2021/01/28 05:25:10;;;;;;;18.92;16.98;;;3.50;99.90;;;;;;4992442;28;20178;-76
2021/01/28 05:27:38;;;;;;;17.92;16.17;;;3.50;99.90;;;;;;4992476;28;20193;-76
2021/01/28 05:30:13;;;;;;;17.88;16.08;;;3.50;99.90;;;;;;4992642;28;20220;-78
2021/01/28 05:32:44;;;;;;;19.67;17.60;;;3.50;99.90;;;;;;4992587;28;20593;-75
2021/01/28 05:35:25;;;;;;;18.75;16.85;;;3.50;99.90;;;;;;4992271;28;20672;-76
2021/01/28 05:38:09;;;;;;;18.83;16.83;;;3.50;99.90;;;;;;4991986;28;20185;-77
2021/01/28 05:40:35;;;;;;;18.15;16.45;;;3.50;99.90;;;;;;4992196;28;20174;-78
2021/01/28 05:43:19;;;;;;;19.23;17.25;;;3.60;99.90;;;;;;4992473;28;20213;-77
2021/01/28 05:45:45;;;;;;;18.30;16.60;;;3.50;99.90;;;;;;4992477;28;20170;-77
2021/01/28 05:48:28;;;;;;;18.88;17.05;;;3.50;99.90;;;;;;4986459;28;20695;-78
2021/01/28 05:51:09;;;;;;;18.63;16.80;;;3.50;99.90;;;;;;4984992;28;20235;-77
2021/01/28 05:53:35;;;;;;;18.17;16.38;;;3.60;99.90;;;;;;4982241;28;20292;-75
2021/01/28 05:56:07;;;;;;;18.67;16.88;;;3.50;99.90;;;;;;4981215;28;20300;-77
2021/01/28 05:58:38;;;;;;;18.70;16.38;;;3.50;99.90;;;;;;4977390;28;20205;-76
2021/01/28 06:01:16;;;;;;;19.92;17.92;;;3.50;99.90;;;;;;4981867;28;20266;-74
2021/01/28 06:04:21;;;;;;;19.75;17.85;;;3.50;99.90;;;;;;4976447;28;20202;-75
2021/01/28 06:07:23;;;;;;;18.67;16.88;;;3.50;99.90;;;;;;4983156;28;20206;-75
2021/01/28 06:10:15;;;;;;;18.85;17.05;;;3.50;99.90;;;;;;4979942;28;20240;-75
2021/01/28 06:12:49;;;;;;;19.45;17.60;;;3.50;99.90;;;;;;4985553;28;20206;-75
2021/01/28 06:15:37;;;;;;;18.02;16.17;;;3.50;99.90;;;;;;4984751;28;20256;-75
2021/01/28 06:18:14;;;;;;;19.85;17.95;;;3.50;99.90;;;;;;4991133;28;20305;-77
2021/01/28 06:21:01;;;;;;;19.17;17.27;;;3.50;99.90;;;;;;4991888;28;20663;-77
2021/01/28 06:23:54;;;;;;;19.48;17.52;;;3.50;99.90;;;;;;4981739;28;20193;-77
2021/01/28 06:26:38;;;;;;;18.77;16.88;;;3.50;99.90;;;;;;4980525;28;20174;-77
2021/01/28 06:29:36;;;;;;;18.60;16.60;;;3.50;99.90;;;;;;4979148;28;20213;-76
2021/01/28 06:32:20;;;;;;;19.65;17.48;;;3.50;99.90;;;;;;4975938;28;20163;-77
2021/01/28 06:34:58;;;;;;;18.95;17.05;;;3.40;99.90;;;;;;4985054;28;20183;-75
2021/01/28 06:37:54;;;;;;;19.65;17.63;;;3.50;99.90;;;;;;4976449;28;20198;-77
2021/01/28 06:40:27;;;;;;;19.52;17.58;;;3.40;99.90;;;;;;4993398;28;20185;-76
2021/01/28 06:43:10;;;;;;;20.10;18.10;;;3.50;99.90;;;;;;4991577;28;20515;-75
2021/01/28 06:45:45;;;;;;;20.52;18.58;;;3.50;99.90;;;;;;4994354;28;20182;-75
2021/01/28 06:48:11;;;;;;;19.63;17.73;;;3.50;99.90;;;;;;4985989;28;20190;-75
2021/01/28 06:50:55;;;;;;;19.40;17.50;;;3.50;99.90;;;;;;4980961;28;20224;-78
2021/01/28 06:53:45;;;;;;;20.33;18.23;;;3.50;99.90;;;;;;4987412;28;20273;-76
2021/01/28 06:56:17;;;;;;;21.27;19.02;;;3.50;99.90;;;;;;4982878;28;20208;-77
2021/01/28 06:58:46;;;;;;;20.02;18.08;;;3.50;99.90;;;;;;4982476;28;20550;-77
2021/01/28 07:01:16;;;;;;;19.52;17.67;;;3.50;99.90;;;;;;4987738;28;20712;-77
2021/01/28 07:04:10;;;;;;;20.55;18.55;;;3.50;99.90;;;;;;4993106;28;20735;-77
2021/01/28 07:07:07;;;;;;;18.42;16.70;;;3.50;99.90;;;;;;4994068;28;20170;-77
2021/01/28 07:09:45;;;;;;;20.65;18.48;;;3.50;99.90;;;;;;4989940;28;20321;-77
2021/01/28 07:12:17;;;;;;;20.10;18.10;;;3.60;99.90;;;;;;4994723;28;20249;-77
2021/01/28 07:14:50;;;;;;;20.20;18.10;;;3.60;99.90;;;;;;4994597;28;20176;-77
2021/01/28 07:17:34;;;;;;;20.60;18.70;;;3.60;99.90;;;;;;4992491;28;20289;-78
2021/01/28 07:20:06;;;;;;;19.67;17.55;;;3.50;99.90;;;;;;4994992;28;20170;-77
2021/01/28 07:22:41;;;;;;;18.90;17.00;;;3.50;99.90;;;;;;4994521;28;20172;-77
2021/01/28 07:25:29;;;;;;;19.13;17.23;;;3.50;99.90;;;;;;4992956;28;20244;-77
2021/01/28 07:28:03;;;;;;;21.70;19.50;;;3.50;99.90;;;;;;4992891;28;20221;-78
2021/01/28 07:30:39;;;;;;;21.13;18.92;;;3.50;99.90;;;;;;4993861;28;20228;-77
2021/01/28 07:33:06;;;;;;;20.73;18.73;;;3.60;99.90;;;;;;4994128;28;20612;-78
2021/01/28 07:35:43;;;;;;;20.08;17.98;;;3.60;99.90;;;;;;4994120;28;20372;-77
2021/01/28 07:38:27;;;;;;;20.77;18.52;;;3.60;99.90;;;;;;4993948;28;20190;-77
2021/01/28 07:41:04;;;;;;;20.70;18.60;;;3.60;99.90;;;;;;4994094;28;20255;-77
2021/01/28 07:43:32;;;;;;;20.45;18.40;;;3.60;99.90;;;;;;4994077;28;20210;-78
2021/01/28 07:46:26;;;;;;;21.65;19.42;;;3.60;99.90;;;;;;4994018;28;20170;-78
2021/01/28 07:49:25;;;;;;;20.45;18.40;;;3.60;99.90;;;;;;4993169;28;20267;-78
2021/01/28 07:52:02;;;;;;;18.98;17.17;;;3.60;99.90;;;;;;4992242;28;20190;-77
2021/01/28 07:54:28;;;;;;;20.17;18.08;;;3.70;99.90;;;;;;4993733;28;20194;-78
2021/01/28 07:56:53;;;;;;;20.17;18.17;;;3.70;99.90;;;;;;4993813;28;20519;-78
2021/01/28 07:59:31;;;;;;;19.73;17.63;;;3.70;99.90;;;;;;4994114;28;20267;-78
2021/01/28 08:02:17;;;;;;;19.65;17.75;;;3.70;99.90;;;;;;4994002;28;20192;-77
2021/01/28 08:05:03;;;;;;;20.70;18.70;;;3.70;99.90;;;;;;4989938;28;20182;-77
2021/01/28 08:07:32;;;;;;;19.48;17.50;;;4.30;99.90;;;;;;4985368;28;20186;-77
2021/01/28 08:10:01;;;;;;;19.58;17.58;;;3.60;99.90;;;;;;4992707;28;20741;-77
2021/01/28 08:12:43;;;;;;;20.45;18.23;;;3.70;99.90;;;;;;4993727;28;20212;-77
2021/01/28 08:15:19;;;;;;;19.10;17.10;;;3.70;99.90;;;;;;4993411;28;20643;-77
2021/01/28 08:17:44;;;;;;;18.45;16.60;;;3.80;99.90;;;;;;4993710;28;20193;-78
2021/01/28 08:20:25;;;;;;;20.15;18.00;;;3.80;99.90;;;;;;4992421;28;20249;-78
2021/01/28 08:23:04;;;;;;;18.52;16.58;;;3.90;99.90;;;;;;4993109;28;20263;-78
2021/01/28 08:25:36;;;;;;;18.40;16.60;;;3.90;99.90;;;;;;4993589;28;20170;-78
2021/01/28 08:28:14;;;;;;;19.58;17.65;;;3.90;99.90;;;;;;4992879;28;20201;-79
2021/01/28 08:30:41;;;;;;;19.02;17.08;;;3.90;99.90;;;;;;4993354;28;20169;-78
2021/01/28 08:33:12;;;;;;;18.08;16.33;;;4.00;99.90;;;;;;4991925;28;20679;-78
2021/01/28 08:35:43;;;;;;;17.05;15.25;;;4.00;99.90;;;;;;4993203;28;20229;-77
2021/01/28 08:38:30;;;;;;;18.65;16.85;;;3.90;99.90;;;;;;4992776;28;20321;-77
2021/01/28 08:41:20;;;;;;;19.45;17.45;;;4.00;99.90;;;;;;4991747;28;20240;-77
2021/01/28 08:43:46;;;;;;;19.70;17.08;;;4.00;99.90;;;;;;4993045;28;20185;-77
2021/01/28 08:46:20;;;;;;;18.77;16.88;;;4.00;99.90;;;;;;4993104;28;20188;-77
2021/01/28 08:48:46;;;;;;;19.30;17.33;;;4.10;99.90;;;;;;4991814;28;20202;-77
2021/01/28 08:51:22;;;;;;;19.75;17.75;;;4.00;99.90;;;;;;4992903;28;20174;-77
2021/01/28 08:54:00;;;;;;;19.13;17.13;;;4.00;99.90;;;;;;4992651;28;20826;-76
2021/01/28 08:56:37;;;;;;;19.10;16.83;;;4.00;99.90;;;;;;4992322;28;20237;-77
2021/01/28 08:59:07;;;;;;;18.63;16.15;;;4.10;99.90;;;;;;4992978;28;20204;-76
2021/01/28 09:01:45;;;;;;;19.33;17.13;;;4.10;99.90;;;;;;4992937;28;20229;-77
2021/01/28 09:04:22;;;;;;;20.73;18.13;;;4.20;99.90;;;;;;4991081;28;20207;-77
2021/01/28 09:06:49;;;;;;;19.15;17.25;;;4.20;99.90;;;;;;4991450;28;20174;-77
2021/01/28 09:09:32;;;;;;;19.60;17.67;;;4.20;99.90;;;;;;4992058;28;20238;-77
2021/01/28 09:12:30;;;;;;;18.98;17.08;;;4.20;99.90;;;;;;4992754;28;20255;-77
2021/01/28 09:15:11;;;;;;;19.67;17.58;;;4.20;99.90;;;;;;4991138;28;20185;-77
2021/01/28 09:17:40;;;;;;;20.58;18.45;;;4.20;99.90;;;;;;4991039;28;20213;-77
2021/01/28 09:20:07;;;;;;;19.08;17.15;;;4.20;99.90;;;;;;4992503;28;20170;-77
2021/01/28 09:22:39;;;;;;;20.50;18.40;;;4.20;99.90;;;;;;4992303;28;20636;-77
2021/01/28 09:25:22;;;;;;;19.15;17.20;;;4.20;99.90;;;;;;4991170;28;20312;-77
2021/01/28 09:28:05;;;;;;;19.25;17.38;;;4.20;99.90;;;;;;4991258;28;20260;-77
2021/01/28 09:30:36;;;;;;;19.65;17.65;;;4.20;99.90;;;;;;4991177;28;20342;-77
2021/01/28 09:33:30;;;;;;;18.58;16.77;;;4.20;99.90;;;;;;4992967;28;20194;-77
2021/01/28 09:36:10;;;;;;;18.00;16.20;;;4.20;99.90;;;;;;4992362;28;20611;-77
2021/01/28 09:38:38;;;;;;;18.83;16.92;;;4.20;99.90;;;;;;4991562;28;20217;-77
2021/01/28 09:41:17;;;;;;;20.75;18.65;;;4.30;99.90;;;;;;4990966;28;20178;-76
2021/01/28 09:43:43;;;;;;;19.67;17.73;;;4.30;99.90;;;;;;4992357;28;20292;-77
2021/01/28 09:46:17;;;;;;;19.52;17.63;;;4.30;99.90;;;;;;4990985;28;20237;-77
2021/01/28 09:48:47;;;;;;;20.85;18.60;;;4.40;99.90;;;;;;4992379;28;20189;-77
2021/01/28 09:51:19;;;;;;;20.40;18.42;;;4.40;99.90;;;;;;4984103;28;20249;-77
2021/01/28 09:54:11;;;;;;;20.35;18.30;;;4.40;99.90;;;;;;4991174;28;20203;-76
2021/01/28 09:56:38;;;;;;;20.30;18.30;;;4.40;99.90;;;;;;4972596;28;20210;-76
2021/01/28 09:59:04;;;;;;;19.42;16.33;;;4.40;99.90;;;;;;4981871;28;20252;-76
2021/01/28 10:01:30;;;;;;;17.42;15.70;;;4.50;99.90;;;;;;4991959;28;20201;-76
2021/01/28 10:03:56;;;;;;;18.50;16.70;;;4.60;99.90;;;;;;4992254;28;20264;-76
2021/01/28 10:06:21;;;;;;;17.13;15.30;;;4.50;99.90;;;;;;4991840;28;20553;-76
2021/01/28 10:08:48;;;;;;;18.40;16.60;;;4.60;99.90;;;;;;4971636;28;20252;-76
2021/01/28 10:11:15;;;;;;;18.65;16.83;;;4.60;99.90;;;;;;4972577;28;20599;-76
2021/01/28 10:13:41;;;;;;;17.10;15.50;;;4.60;99.90;;;;;;4972702;28;20205;-77
2021/01/28 10:16:07;;;;;;;20.48;16.02;;;4.60;99.90;;;;;;4972281;28;20206;-76
2021/01/28 10:18:33;;;;;;;18.88;17.08;;;4.60;99.90;;;;;;4972381;28;20201;-76
2021/01/28 10:20:59;;;;;;;17.80;15.38;;;4.70;99.90;;;;;;4972338;28;20178;-76
2021/01/28 10:23:25;;;;;;;17.35;15.55;;;4.70;99.90;;;;;;4972207;28;20194;-76
2021/01/28 10:25:50;;;;;;;18.98;17.00;;;4.70;99.90;;;;;;4990692;28;20181;-77
2021/01/28 10:28:16;;;;;;;17.17;15.40;;;4.70;99.90;;;;;;4991746;28;20194;-76
2021/01/28 10:30:41;;;;;;;17.33;15.48;;;4.70;99.90;;;;;;4991704;28;20552;-76
2021/01/28 10:33:08;;;;;;;14.50;13.20;;;4.60;99.90;;;;;;4990558;28;20300;-77
2021/01/28 10:35:34;;;;;;;16.08;14.38;;;4.70;99.90;;;;;;4990982;28;20202;-76
2021/01/28 10:38:01;;;;;;;15.00;13.60;;;4.80;99.90;;;;;;4990347;28;20201;-77
2021/01/28 10:40:27;;;;;;;15.02;13.52;;;4.80;99.90;;;;;;4990441;28;20291;-78
2021/01/28 10:42:59;;;;;;;14.95;13.35;;;4.70;99.90;;;;;;4991843;28;20268;-76
2021/01/28 10:45:29;;;;;;;14.63;13.23;;;4.80;99.90;;;;;;4991695;28;20274;-77
2021/01/28 10:47:55;;;;;;;16.45;14.82;;;4.80;99.90;;;;;;4990440;28;20272;-77
2021/01/28 10:50:22;;;;;;;16.75;15.15;;;4.80;99.90;;;;;;4991557;28;20170;-77
2021/01/28 10:52:48;;;;;;;16.17;14.52;;;4.90;99.90;;;;;;4994936;28;20193;-77
2021/01/28 10:55:14;;;;;;;15.35;13.80;;;5.00;99.90;;;;;;4995069;28;20637;-77
2021/01/28 10:57:40;;;;;;;17.02;14.23;;;4.90;99.90;;;;;;4993951;28;20205;-77
2021/01/28 11:00:06;;;;;;;14.85;13.35;;;4.90;99.90;;;;;;4994757;28;20174;-77
2021/01/28 11:02:32;;;;;;;14.32;12.93;;;4.90;99.90;;;;;;4993853;28;20240;-78
2021/01/28 11:04:58;;;;;;;15.13;13.45;;;4.90;99.90;;;;;;4994922;28;20636;-78
2021/01/28 11:07:23;;;;;;;15.68;14.07;;;4.90;99.90;;;;;;4995093;28;20217;-76
2021/01/28 11:09:49;;;;;;;14.15;12.82;;;4.90;99.90;;;;;;4994595;28;20666;-77
2021/01/28 11:12:14;;;;;;;13.65;12.35;;;4.90;99.90;;;;;;4993633;28;20170;-76
2021/01/28 11:14:40;;;;;;;13.18;11.88;;;4.90;99.90;;;;;;4994726;28;20174;-76
2021/01/28 11:17:05;;;;;;;13.60;12.30;;;4.90;99.90;;;;;;4993462;28;20217;-78
2021/01/28 11:19:31;;;;;;;13.00;11.65;;;4.90;99.90;;;;;;4994730;28;20592;-77
2021/01/28 11:21:57;;;;;;;12.35;11.20;;;4.90;99.90;;;;;;4994788;28;20170;-77
2021/01/28 11:24:23;;;;;;;11.85;10.75;;;5.00;99.90;;;;;;4994259;28;20691;-77
2021/01/28 11:26:48;;;;;;;11.43;10.32;;;4.90;99.90;;;;;;4983371;28;20178;-78
2021/01/28 11:29:14;;;;;;;11.07;9.98;;;4.90;99.90;;;;;;4991655;28;20205;-76
2021/01/28 11:31:40;;;;;;;12.10;11.00;;;4.90;99.90;;;;;;4973959;28;20393;-77
2021/01/28 11:34:05;;;;;;;12.10;10.90;;;4.90;99.90;;;;;;4978876;28;20534;-77
2021/01/28 11:36:32;;;;;;;11.50;10.48;;;4.90;99.90;;;;;;4994312;28;20244;-77
2021/01/28 11:38:57;;;;;;;10.65;9.68;;;4.90;99.90;;;;;;4975320;28;20305;-74
2021/01/28 11:41:23;;;;;;;11.98;10.88;;;4.90;99.90;;;;;;4974084;28;20672;-76
2021/01/28 11:43:49;;;;;;;12.90;11.50;;;4.90;99.90;;;;;;4981759;28;20536;-76
2021/01/28 11:46:14;;;;;;;12.93;11.65;;;5.00;99.90;;;;;;4974947;28;20217;-74
2021/01/28 11:48:40;;;;;;;12.45;11.35;;;5.00;99.90;;;;;;4991274;28;20224;-76
2021/01/28 11:51:06;;;;;;;11.73;10.63;;;5.00;99.90;;;;;;4974835;28;20217;-76
2021/01/28 11:53:32;;;;;;;11.23;10.10;;;4.90;99.90;;;;;;4986384;28;20198;-75
2021/01/28 11:55:57;;;;;;;12.15;11.05;;;5.00;99.90;;;;;;4981728;28;20691;-79
2021/01/28 11:58:23;;;;;;;13.05;11.85;;;5.00;99.90;;;;;;4977336;28;20194;-78
2021/01/28 12:00:48;;;;;;;13.80;12.43;;;5.00;99.90;;;;;;4974681;28;20630;-79
2021/01/28 12:03:15;;;;;;;12.90;11.57;;;5.00;99.90;;;;;;4974171;28;20202;-73
2021/01/28 12:05:41;;;;;;;12.80;11.55;;;5.00;99.90;;;;;;4987186;28;20170;-75
2021/01/28 12:08:07;;;;;;;12.93;11.73;;;5.00;99.90;;;;;;4984729;28;20241;-76
2021/01/28 12:10:33;;;;;;;12.57;11.32;;;5.00;99.90;;;;;;4981496;28;20258;-79
2021/01/28 12:13:00;;;;;;;12.23;11.02;;;4.90;99.90;;;;;;4974272;28;20194;-78
2021/01/28 12:15:26;;;;;;;16.73;13.05;;;4.90;99.90;;;;;;4982399;28;20588;-79
2021/01/28 12:17:53;;;;;;;12.55;11.45;;;4.90;99.90;;;;;;4984881;28;20230;-78
2021/01/28 12:20:25;;;;;;;13.43;11.60;;;4.80;99.90;;;;;;4979741;28;20175;-75
2021/01/28 12:22:51;;;;;;;11.80;10.65;;;4.80;99.90;;;;;;4981526;28;20236;-78
2021/01/28 12:25:16;;;;;;;14.73;11.40;;;4.80;99.90;;;;;;4983824;28;20219;-78
2021/01/28 12:27:42;;;;;;;13.55;12.18;;;4.80;99.90;;;;;;4981073;28;20675;-79
2021/01/28 12:30:10;;;;;;;12.07;10.98;;;4.80;99.90;;;;;;4982137;28;20175;-78
2021/01/28 12:32:37;;;;;;;15.50;12.25;;;4.80;99.90;;;;;;4982474;28;20198;-76
2021/01/28 12:35:04;;;;;;;12.73;11.52;;;4.80;99.90;;;;;;4982409;28;20201;-76
2021/01/28 12:37:30;;;;;;;13.35;11.98;;;4.80;99.90;;;;;;4980109;28;20170;-74
2021/01/28 12:39:56;;;;;;;14.60;13.13;;;4.80;99.90;;;;;;4980760;28;20183;-77
2021/01/28 12:42:25;;;;;;;12.90;11.63;;;4.80;99.90;;;;;;4982198;28;20174;-77
2021/01/28 12:44:51;;;;;;;14.73;13.23;;;4.90;99.90;;;;;;4983022;28;20258;-75
2021/01/28 12:47:17;;;;;;;15.00;13.00;;;4.90;99.90;;;;;;4979458;28;20222;-75
2021/01/28 12:49:43;;;;;;;13.70;12.27;;;4.80;99.90;;;;;;4983742;28;20192;-76
2021/01/28 12:52:08;;;;;;;14.68;12.70;;;4.80;99.90;;;;;;4987142;28;20726;-75
2021/01/28 12:54:34;;;;;;;14.35;12.95;;;4.80;99.90;;;;;;4981499;28;20673;-76
2021/01/28 12:57:00;;;;;;;14.70;13.15;;;4.80;99.90;;;;;;4982301;28;20690;-76
2021/01/28 12:59:25;;;;;;;13.68;12.32;;;4.80;99.90;;;;;;4989074;28;20194;-75
2021/01/28 13:01:51;;;;;;;13.13;11.93;;;4.80;99.90;;;;;;4981223;28;20229;-75
2021/01/28 13:04:17;;;;;;;13.70;12.30;;;4.80;99.90;;;;;;4984621;28;20197;-76
2021/01/28 13:06:42;;;;;;;13.35;11.98;;;4.80;99.90;;;;;;4982492;28;20171;-75
2021/01/28 13:09:08;;;;;;;14.13;12.73;;;4.70;99.90;;;;;;4978781;28;20225;-75
2021/01/28 13:11:34;;;;;;;13.75;12.35;;;4.70;99.90;;;;;;4984009;28;20178;-75
2021/01/28 13:13:59;;;;;;;17.30;13.18;;;4.70;99.90;;;;;;4981022;28;20233;-74
2021/01/28 13:16:25;;;;;;;14.13;12.80;;;4.70;99.90;;;;;;4982793;28;20589;-76
2021/01/28 13:18:51;;;;;;;13.57;12.27;;;4.60;99.90;;;;;;4990532;28;20229;-75
2021/01/28 13:21:17;;;;;;;14.60;12.95;;;4.60;99.90;;;;;;4979639;28;20185;-74
2021/01/28 13:23:43;;;;;;;18.20;13.95;;;4.60;99.90;;;;;;4981590;28;20198;-75
2021/01/28 13:26:08;;;;;;;13.55;12.18;;;4.60;99.90;;;;;;4976695;28;20261;-75
2021/01/28 13:28:34;;;;;;;12.32;11.18;;;4.60;99.90;;;;;;4988341;28;20202;-74
2021/01/28 13:31:00;;;;;;;13.57;12.18;;;4.70;99.90;;;;;;4979306;28;20179;-69
2021/01/28 13:33:25;;;;;;;13.10;11.75;;;4.50;99.90;;;;;;4988142;28;20212;-69
2021/01/28 13:35:51;;;;;;;13.40;12.15;;;4.60;99.90;;;;;;4990778;28;20213;-78
2021/01/28 13:38:17;;;;;;;11.82;10.73;;;4.70;99.90;;;;;;4987512;28;20457;-77
2021/01/28 13:40:43;;;;;;;12.27;11.18;;;4.70;99.90;;;;;;4981367;28;20177;-78
2021/01/28 13:43:10;;;;;;;14.13;12.60;;;4.60;99.90;;;;;;4985376;28;20190;-78
2021/01/28 13:45:36;;;;;;;13.43;12.23;;;4.60;99.90;;;;;;4971717;28;20641;-78
2021/01/28 13:48:03;;;;;;;13.73;12.13;;;4.60;99.90;;;;;;4983362;28;20296;-79
2021/01/28 13:50:31;;;;;;;13.65;12.35;;;4.60;99.90;;;;;;4990705;28;20191;-80
2021/01/28 13:52:58;;;;;;;13.63;12.30;;;4.60;99.90;;;;;;4992028;28;20265;-79
2021/01/28 13:55:24;;;;;;;14.35;12.95;;;4.60;99.90;;;;;;4989675;28;20170;-79
2021/01/28 13:57:50;;;;;;;13.68;12.07;;;4.60;99.90;;;;;;4973000;28;20256;-79
2021/01/28 14:00:19;;;;;;;14.13;12.82;;;4.60;99.90;;;;;;4971288;28;20175;-78
2021/01/28 14:02:49;;;;;;;14.20;12.90;;;4.60;99.90;;;;;;4972896;28;20226;-79
2021/01/28 14:05:15;;;;;;;13.98;12.57;;;4.60;99.90;;;;;;4972741;28;20178;-79
2021/01/28 14:07:41;;;;;;;13.90;12.55;;;4.60;99.90;;;;;;4988815;28;20273;-79
2021/01/28 14:10:09;;;;;;;13.23;12.02;;;4.60;99.90;;;;;;4991795;28;20675;-79
2021/01/28 14:12:35;;;;;;;13.23;12.02;;;4.60;99.90;;;;;;4992040;28;20186;-80
2021/01/28 14:15:00;;;;;;;13.20;11.88;;;4.60;99.90;;;;;;4990548;28;20662;-79
2021/01/28 14:17:26;;;;;;;12.73;11.52;;;4.60;99.90;;;;;;4990743;28;20702;-79
2021/01/28 14:19:52;;;;;;;12.45;11.25;;;4.60;99.90;;;;;;4992032;28;20181;-78
2021/01/28 14:22:20;;;;;;;13.20;11.90;;;4.60;99.90;;;;;;4992050;28;20170;-79
2021/01/28 14:24:46;;;;;;;11.98;10.88;;;4.60;99.90;;;;;;4992045;28;20174;-78
2021/01/28 14:27:12;;;;;;;12.40;11.20;;;4.60;99.90;;;;;;4995643;28;20262;-78
2021/01/28 14:29:38;;;;;;;12.60;11.50;;;4.60;99.90;;;;;;4995663;28;20197;-79
2021/01/28 14:32:04;;;;;;;12.30;11.18;;;4.60;99.90;;;;;;4995618;28;20178;-79
2021/01/28 14:34:29;;;;;;;11.93;10.73;;;4.60;99.90;;;;;;4995649;28;20236;-78
2021/01/28 14:36:55;;;;;;;11.90;10.90;;;4.60;99.90;;;;;;4995562;28;20252;-79
2021/01/28 14:39:20;;;;;;;12.65;11.43;;;4.60;99.90;;;;;;4985878;28;20284;-79
2021/01/28 14:41:46;;;;;;;12.85;11.55;;;4.60;99.90;;;;;;4975954;28;20258;-79
2021/01/28 14:44:12;;;;;;;12.55;11.40;;;4.60;99.90;;;;;;4974609;28;20359;-77
2021/01/28 14:46:37;;;;;;;12.98;11.77;;;4.60;99.90;;;;;;4975890;28;20217;-79
2021/01/28 14:49:03;;;;;;;11.85;10.80;;;4.60;99.90;;;;;;4976122;28;20323;-79
2021/01/28 14:51:29;;;;;;;11.77;10.77;;;4.60;99.90;;;;;;4975811;28;20298;-79
2021/01/28 14:53:54;;;;;;;12.68;11.48;;;4.60;99.90;;;;;;4974163;28;20676;-79
2021/01/28 14:56:20;;;;;;;11.57;10.48;;;4.50;99.90;;;;;;4975486;28;20696;-78
2021/01/28 14:58:46;;;;;;;12.65;11.45;;;4.50;99.90;;;;;;4974503;28;20202;-78
2021/01/28 15:01:11;;;;;;;12.55;11.45;;;4.50;99.90;;;;;;4979816;28;20190;-79
2021/01/28 15:03:37;;;;;;;12.95;11.75;;;4.50;99.90;;;;;;4995037;28;20226;-79
2021/01/28 15:06:03;;;;;;;12.68;11.48;;;4.50;99.90;;;;;;4995030;28;20220;-76
2021/01/28 15:08:28;;;;;;;12.68;11.57;;;4.60;99.90;;;;;;4989809;28;20292;-73
2021/01/28 15:10:54;;;;;;;12.35;11.25;;;4.50;99.90;;;;;;4982641;28;20536;-78
2021/01/28 15:13:20;;;;;;;12.52;11.32;;;4.50;99.90;;;;;;4990869;28;20269;-76
2021/01/28 15:15:46;;;;;;;12.77;11.57;;;4.50;99.90;;;;;;4985750;28;20218;-76
2021/01/28 15:18:12;;;;;;;12.73;11.60;;;4.50;99.90;;;;;;4984217;28;20600;-77
2021/01/28 15:20:39;;;;;;;12.20;11.00;;;4.60;99.90;;;;;;4984297;28;20174;-77
2021/01/28 15:23:04;;;;;;;10.90;9.90;;;4.50;99.90;;;;;;4982541;28;20269;-79
2021/01/28 15:25:30;;;;;;;10.98;9.98;;;4.60;99.90;;;;;;4991541;28;20243;-75
2021/01/28 15:27:55;;;;;;;10.55;9.55;;;4.60;99.90;;;;;;4987417;28;20218;-78
2021/01/28 15:30:23;;;;;;;10.75;9.68;;;4.60;99.90;;;;;;4984712;28;20185;-76
2021/01/28 15:32:52;;;;;;;11.30;10.30;;;4.60;99.90;;;;;;4983203;28;20584;-77
2021/01/28 15:35:19;;;;;;;13.82;11.43;;;4.60;99.90;;;;;;4989335;28;20178;-72
2021/01/28 15:37:47;;;;;;;14.25;12.85;;;4.60;99.90;;;;;;4987153;28;20207;-75
2021/01/28 15:40:14;;;;;;;15.23;13.70;;;4.60;99.90;;;;;;4988829;28;20170;-75
2021/01/28 15:42:39;;;;;;;18.40;15.98;;;4.60;99.90;;;;;;4991356;28;20272;-75
2021/01/28 15:45:06;;;;;;;19.17;17.17;;;4.60;99.90;;;;;;4992854;28;20656;-76
2021/01/28 15:47:32;;;;;;;18.55;16.75;;;4.60;99.90;;;;;;4992394;28;20178;-72
2021/01/28 15:49:59;;;;;;;18.65;16.10;;;4.70;99.90;;;;;;4994409;28;20170;-77
2021/01/28 15:52:25;;;;;;;18.52;16.65;;;4.60;99.90;;;;;;4992208;28;20425;-72
2021/01/28 15:54:51;;;;;;;17.33;15.55;;;4.60;99.90;;;;;;4989654;28;20166;-71
2021/01/28 15:57:17;;;;;;;18.27;16.33;;;4.60;99.90;;;;;;4973362;28;20210;-72
2021/01/28 15:59:43;;;;;;;20.75;18.40;;;4.60;99.90;;;;;;4976348;28;20664;-72
2021/01/28 16:02:11;;;;;;;19.75;17.65;;;4.70;99.90;;;;;;4992446;28;20178;-75
2021/01/28 16:04:39;;;;;;;22.50;19.05;;;4.60;99.90;;;;;;4991861;28;20240;-73
2021/01/28 16:07:05;;;;;;;28.73;25.93;;;4.60;99.90;;;;;;4988671;28;20632;-74
2021/01/28 16:09:30;;;;;;;24.70;22.17;;;4.90;99.90;;;;;;4982252;28;20234;-75
2021/01/28 16:11:56;;;;;;;24.10;21.50;;;4.60;99.90;;;;;;4981303;28;20206;-74
2021/01/28 16:14:22;;;;;;;24.00;20.65;;;4.70;99.90;;;;;;4979038;28;20217;-75
2021/01/28 16:16:47;;;;;;;23.50;21.00;;;4.60;99.90;;;;;;4989760;28;20210;-81
2021/01/28 16:19:13;;;;;;;23.52;20.58;;;4.60;99.90;;;;;;4974157;28;20191;-77
2021/01/28 16:21:39;;;;;;;24.35;21.80;;;4.70;99.90;;;;;;4972979;28;20166;-82
2021/01/28 16:24:06;;;;;;;25.15;20.48;;;4.60;99.90;;;;;;4973805;28;20194;-76
2021/01/28 16:26:31;;;;;;;23.77;21.15;;;4.60;99.90;;;;;;4974133;28;20238;-74
2021/01/28 16:28:57;;;;;;;21.80;19.15;;;4.60;99.90;;;;;;4982901;28;20692;-75
2021/01/28 16:31:23;;;;;;;21.38;19.10;;;4.50;99.90;;;;;;4977497;28;20272;-74
2021/01/28 16:33:49;;;;;;;21.10;18.80;;;4.60;99.90;;;;;;5007737;28;20219;-76
2021/01/28 16:36:16;;;;;;;18.00;16.10;;;4.50;99.90;;;;;;5012079;28;20667;-74
2021/01/28 16:38:41;;;;;;;18.92;16.13;;;4.50;99.90;;;;;;5012433;28;20197;-76
2021/01/28 16:41:07;;;;;;;17.95;15.50;;;4.60;99.90;;;;;;5011334;28;20191;-75
2021/01/28 16:43:34;;;;;;;15.48;13.88;;;4.50;99.90;;;;;;5004880;28;20209;-76
2021/01/28 16:45:59;;;;;;;14.93;13.32;;;4.60;99.90;;;;;;4988146;28;20182;-76
2021/01/28 16:48:26;;;;;;;14.52;13.02;;;4.60;99.90;;;;;;4990625;28;20268;-75
2021/01/28 16:50:52;;;;;;;15.00;13.40;;;4.50;99.90;;;;;;4986657;28;20185;-76
2021/01/28 16:53:18;;;;;;;15.10;13.57;;;4.50;99.90;;;;;;4979507;28;20661;-77
2021/01/28 16:55:44;;;;;;;14.60;13.05;;;4.40;99.90;;;;;;4982491;28;20293;-75
2021/01/28 16:58:10;;;;;;;14.73;13.13;;;4.50;99.90;;;;;;4983307;28;20190;-75
2021/01/28 17:00:36;;;;;;;15.20;13.60;;;4.40;99.90;;;;;;4978981;28;20500;-76